sensor_id;sensor_type;location;lat;lon;timestamp;P1;durP1;ratioP1;P2;durP2;ratioP2
3700;SDS011;1866;48.374;10.766;2022-07-29T00:01:43;96.87;;;5.20;;
3700;SDS011;1866;48.374;10.766;2022-07-29T00:04:11;98.13;;;5.00;;
3700;SDS011;1866;48.374;10.766;2022-07-29T00:06:38;96.87;;;4.97;;
3700;SDS011;1866;48.374;10.766;2022-07-29T00:09:06;97.10;;;4.93;;
3700;SDS011;1866;48.374;10.766;2022-07-29T00:11:33;98.17;;;5.27;;
3700;SDS011;1866;48.374;10.766;2022-07-29T00:14:00;96.80;;;5.07;;
3700;SDS011;1866;48.374;10.766;2022-07-29T00:16:27;99.37;;;5.20;;
3700;SDS011;1866;48.374;10.766;2022-07-29T00:18:53;98.10;;;5.27;;
3700;SDS011;1866;48.374;10.766;2022-07-29T00:21:22;96.80;;;5.53;;
3700;SDS011;1866;48.374;10.766;2022-07-29T00:23:49;97.77;;;5.63;;
3700;SDS011;1866;48.374;10.766;2022-07-29T00:26:16;97.40;;;4.87;;
3700;SDS011;1866;48.374;10.766;2022-07-29T00:28:43;99.57;;;5.03;;
3700;SDS011;1866;48.374;10.766;2022-07-29T00:31:10;96.80;;;5.60;;
3700;SDS011;1866;48.374;10.766;2022-07-29T00:33:36;101.80;;;5.40;;
3700;SDS011;1866;48.374;10.766;2022-07-29T00:36:04;96.47;;;5.00;;
3700;SDS011;1866;48.374;10.766;2022-07-29T00:38:31;96.73;;;5.30;;
3700;SDS011;1866;48.374;10.766;2022-07-29T00:40:58;96.77;;;5.30;;
3700;SDS011;1866;48.374;10.766;2022-07-29T00:43:25;97.00;;;5.03;;
3700;SDS011;1866;48.374;10.766;2022-07-29T00:45:53;97.47;;;5.77;;
3700;SDS011;1866;48.374;10.766;2022-07-29T00:48:20;95.70;;;4.80;;
3700;SDS011;1866;48.374;10.766;2022-07-29T00:50:47;96.77;;;5.07;;
3700;SDS011;1866;48.374;10.766;2022-07-29T00:53:16;103.43;;;5.20;;
3700;SDS011;1866;48.374;10.766;2022-07-29T00:55:44;96.07;;;5.00;;
3700;SDS011;1866;48.374;10.766;2022-07-29T00:58:11;95.97;;;5.03;;
3700;SDS011;1866;48.374;10.766;2022-07-29T01:00:39;95.67;;;4.70;;
3700;SDS011;1866;48.374;10.766;2022-07-29T01:03:06;98.40;;;5.57;;
3700;SDS011;1866;48.374;10.766;2022-07-29T01:05:34;96.30;;;4.90;;
3700;SDS011;1866;48.374;10.766;2022-07-29T01:08:02;98.13;;;5.63;;
3700;SDS011;1866;48.374;10.766;2022-07-29T01:10:29;103.00;;;6.37;;
3700;SDS011;1866;48.374;10.766;2022-07-29T01:13:00;97.20;;;5.63;;
3700;SDS011;1866;48.374;10.766;2022-07-29T01:15:28;98.67;;;6.10;;
3700;SDS011;1866;48.374;10.766;2022-07-29T01:17:59;96.73;;;5.33;;
3700;SDS011;1866;48.374;10.766;2022-07-29T01:20:34;99.90;;;5.53;;
3700;SDS011;1866;48.374;10.766;2022-07-29T01:23:37;96.37;;;4.90;;
3700;SDS011;1866;48.374;10.766;2022-07-29T01:26:22;97.37;;;5.80;;
3700;SDS011;1866;48.374;10.766;2022-07-29T01:29:02;98.17;;;5.80;;
3700;SDS011;1866;48.374;10.766;2022-07-29T01:31:32;98.50;;;6.40;;
3700;SDS011;1866;48.374;10.766;2022-07-29T01:34:05;96.70;;;5.70;;
3700;SDS011;1866;48.374;10.766;2022-07-29T01:36:43;96.80;;;5.10;;
3700;SDS011;1866;48.374;10.766;2022-07-29T01:39:16;97.27;;;5.30;;
3700;SDS011;1866;48.374;10.766;2022-07-29T01:41:48;96.50;;;5.40;;
3700;SDS011;1866;48.374;10.766;2022-07-29T01:44:26;98.87;;;5.90;;
3700;SDS011;1866;48.374;10.766;2022-07-29T01:46:58;97.30;;;5.80;;
3700;SDS011;1866;48.374;10.766;2022-07-29T01:49:31;98.13;;;6.67;;
3700;SDS011;1866;48.374;10.766;2022-07-29T01:52:03;101.00;;;5.57;;
3700;SDS011;1866;48.374;10.766;2022-07-29T01:54:34;97.47;;;5.43;;
3700;SDS011;1866;48.374;10.766;2022-07-29T01:57:04;99.77;;;5.80;;
3700;SDS011;1866;48.374;10.766;2022-07-29T01:59:35;97.70;;;5.77;;
3700;SDS011;1866;48.374;10.766;2022-07-29T02:02:04;98.70;;;5.80;;
3700;SDS011;1866;48.374;10.766;2022-07-29T02:04:34;100.10;;;7.67;;
3700;SDS011;1866;48.374;10.766;2022-07-29T02:07:06;99.37;;;6.17;;
3700;SDS011;1866;48.374;10.766;2022-07-29T02:09:36;102.93;;;7.20;;
3700;SDS011;1866;48.374;10.766;2022-07-29T02:12:05;97.77;;;6.40;;
3700;SDS011;1866;48.374;10.766;2022-07-29T02:14:38;98.63;;;6.07;;
3700;SDS011;1866;48.374;10.766;2022-07-29T02:17:09;98.63;;;6.27;;
3700;SDS011;1866;48.374;10.766;2022-07-29T02:19:38;99.87;;;6.50;;
3700;SDS011;1866;48.374;10.766;2022-07-29T02:22:07;97.90;;;5.90;;
3700;SDS011;1866;48.374;10.766;2022-07-29T02:24:35;100.93;;;5.80;;
3700;SDS011;1866;48.374;10.766;2022-07-29T02:27:05;99.73;;;6.57;;
3700;SDS011;1866;48.374;10.766;2022-07-29T02:29:34;101.57;;;5.67;;
3700;SDS011;1866;48.374;10.766;2022-07-29T02:32:04;98.37;;;6.33;;
3700;SDS011;1866;48.374;10.766;2022-07-29T02:34:36;97.30;;;5.80;;
3700;SDS011;1866;48.374;10.766;2022-07-29T02:37:05;97.70;;;6.13;;
3700;SDS011;1866;48.374;10.766;2022-07-29T02:39:36;98.20;;;6.20;;
3700;SDS011;1866;48.374;10.766;2022-07-29T02:42:05;108.00;;;6.47;;
3700;SDS011;1866;48.374;10.766;2022-07-29T02:44:35;97.20;;;5.77;;
3700;SDS011;1866;48.374;10.766;2022-07-29T02:47:04;99.93;;;6.60;;
3700;SDS011;1866;48.374;10.766;2022-07-29T02:49:46;98.70;;;6.37;;
3700;SDS011;1866;48.374;10.766;2022-07-29T02:52:20;99.80;;;6.10;;
3700;SDS011;1866;48.374;10.766;2022-07-29T02:54:51;99.67;;;6.70;;
3700;SDS011;1866;48.374;10.766;2022-07-29T02:57:22;98.67;;;6.10;;
3700;SDS011;1866;48.374;10.766;2022-07-29T02:59:57;99.20;;;6.27;;
3700;SDS011;1866;48.374;10.766;2022-07-29T03:02:30;97.90;;;6.00;;
3700;SDS011;1866;48.374;10.766;2022-07-29T03:05:02;98.87;;;6.37;;
3700;SDS011;1866;48.374;10.766;2022-07-29T03:07:30;99.40;;;6.00;;
3700;SDS011;1866;48.374;10.766;2022-07-29T03:09:59;97.67;;;6.23;;
3700;SDS011;1866;48.374;10.766;2022-07-29T03:12:28;99.13;;;6.90;;
3700;SDS011;1866;48.374;10.766;2022-07-29T03:14:56;101.47;;;6.33;;
3700;SDS011;1866;48.374;10.766;2022-07-29T03:17:23;97.27;;;5.40;;
3700;SDS011;1866;48.374;10.766;2022-07-29T03:19:52;98.47;;;6.83;;
3700;SDS011;1866;48.374;10.766;2022-07-29T03:22:20;99.37;;;5.97;;
3700;SDS011;1866;48.374;10.766;2022-07-29T03:24:47;97.53;;;6.00;;
3700;SDS011;1866;48.374;10.766;2022-07-29T03:27:14;98.77;;;6.23;;
3700;SDS011;1866;48.374;10.766;2022-07-29T03:29:41;97.00;;;5.60;;
3700;SDS011;1866;48.374;10.766;2022-07-29T03:32:08;102.00;;;6.53;;
3700;SDS011;1866;48.374;10.766;2022-07-29T03:34:36;99.63;;;7.17;;
3700;SDS011;1866;48.374;10.766;2022-07-29T03:37:05;96.47;;;5.27;;
3700;SDS011;1866;48.374;10.766;2022-07-29T03:39:33;98.67;;;6.90;;
3700;SDS011;1866;48.374;10.766;2022-07-29T03:42:05;97.67;;;6.00;;
3700;SDS011;1866;48.374;10.766;2022-07-29T03:44:34;102.53;;;6.73;;
3700;SDS011;1866;48.374;10.766;2022-07-29T03:47:03;97.20;;;5.77;;
3700;SDS011;1866;48.374;10.766;2022-07-29T03:49:32;100.07;;;6.10;;
3700;SDS011;1866;48.374;10.766;2022-07-29T03:52:05;100.40;;;6.57;;
3700;SDS011;1866;48.374;10.766;2022-07-29T03:54:32;98.30;;;6.33;;
3700;SDS011;1866;48.374;10.766;2022-07-29T03:57:00;100.90;;;6.87;;
3700;SDS011;1866;48.374;10.766;2022-07-29T03:59:30;98.03;;;6.27;;
3700;SDS011;1866;48.374;10.766;2022-07-29T04:01:58;99.03;;;6.37;;
3700;SDS011;1866;48.374;10.766;2022-07-29T04:04:28;97.30;;;5.77;;
3700;SDS011;1866;48.374;10.766;2022-07-29T04:06:55;99.30;;;6.97;;
3700;SDS011;1866;48.374;10.766;2022-07-29T04:09:23;97.20;;;6.20;;
3700;SDS011;1866;48.374;10.766;2022-07-29T04:11:50;98.87;;;6.00;;
3700;SDS011;1866;48.374;10.766;2022-07-29T04:14:17;97.60;;;5.77;;
3700;SDS011;1866;48.374;10.766;2022-07-29T04:16:45;99.27;;;7.00;;
3700;SDS011;1866;48.374;10.766;2022-07-29T04:19:12;101.53;;;7.57;;
3700;SDS011;1866;48.374;10.766;2022-07-29T04:21:39;98.97;;;6.30;;
3700;SDS011;1866;48.374;10.766;2022-07-29T04:24:07;99.80;;;6.00;;
3700;SDS011;1866;48.374;10.766;2022-07-29T04:26:36;100.13;;;6.23;;
3700;SDS011;1866;48.374;10.766;2022-07-29T04:29:02;99.30;;;6.60;;
3700;SDS011;1866;48.374;10.766;2022-07-29T04:31:29;100.97;;;6.10;;
3700;SDS011;1866;48.374;10.766;2022-07-29T04:33:56;101.00;;;6.83;;
3700;SDS011;1866;48.374;10.766;2022-07-29T04:36:23;98.10;;;5.80;;
3700;SDS011;1866;48.374;10.766;2022-07-29T04:38:50;97.90;;;6.03;;
3700;SDS011;1866;48.374;10.766;2022-07-29T04:41:17;101.50;;;7.27;;
3700;SDS011;1866;48.374;10.766;2022-07-29T04:43:45;101.70;;;6.70;;
3700;SDS011;1866;48.374;10.766;2022-07-29T04:46:12;100.00;;;6.53;;
3700;SDS011;1866;48.374;10.766;2022-07-29T04:48:40;99.90;;;6.20;;
3700;SDS011;1866;48.374;10.766;2022-07-29T04:51:06;99.73;;;5.97;;
3700;SDS011;1866;48.374;10.766;2022-07-29T04:53:33;96.07;;;5.20;;
3700;SDS011;1866;48.374;10.766;2022-07-29T04:56:00;100.80;;;5.73;;
3700;SDS011;1866;48.374;10.766;2022-07-29T04:58:28;99.73;;;5.97;;
3700;SDS011;1866;48.374;10.766;2022-07-29T05:00:56;99.80;;;6.07;;
3700;SDS011;1866;48.374;10.766;2022-07-29T05:03:23;99.27;;;5.73;;
3700;SDS011;1866;48.374;10.766;2022-07-29T05:05:50;101.30;;;6.87;;
3700;SDS011;1866;48.374;10.766;2022-07-29T05:08:17;98.90;;;5.70;;
3700;SDS011;1866;48.374;10.766;2022-07-29T05:10:43;98.97;;;6.67;;
3700;SDS011;1866;48.374;10.766;2022-07-29T05:13:11;102.37;;;6.37;;
3700;SDS011;1866;48.374;10.766;2022-07-29T05:15:38;98.20;;;6.10;;
3700;SDS011;1866;48.374;10.766;2022-07-29T05:18:06;96.70;;;5.83;;
3700;SDS011;1866;48.374;10.766;2022-07-29T05:20:33;100.67;;;6.63;;
3700;SDS011;1866;48.374;10.766;2022-07-29T05:23:02;99.70;;;7.50;;
3700;SDS011;1866;48.374;10.766;2022-07-29T05:25:29;99.40;;;7.17;;
3700;SDS011;1866;48.374;10.766;2022-07-29T05:27:56;103.37;;;8.10;;
3700;SDS011;1866;48.374;10.766;2022-07-29T05:30:23;101.90;;;7.47;;
3700;SDS011;1866;48.374;10.766;2022-07-29T05:32:50;102.30;;;8.13;;
3700;SDS011;1866;48.374;10.766;2022-07-29T05:35:19;102.57;;;8.20;;
3700;SDS011;1866;48.374;10.766;2022-07-29T05:37:46;107.13;;;9.33;;
3700;SDS011;1866;48.374;10.766;2022-07-29T05:40:12;100.37;;;7.73;;
3700;SDS011;1866;48.374;10.766;2022-07-29T05:42:40;102.00;;;8.00;;
3700;SDS011;1866;48.374;10.766;2022-07-29T05:45:07;100.97;;;8.77;;
3700;SDS011;1866;48.374;10.766;2022-07-29T05:47:35;105.87;;;10.13;;
3700;SDS011;1866;48.374;10.766;2022-07-29T05:50:02;103.47;;;8.43;;
3700;SDS011;1866;48.374;10.766;2022-07-29T05:52:32;104.80;;;9.30;;
3700;SDS011;1866;48.374;10.766;2022-07-29T05:54:59;107.73;;;9.57;;
3700;SDS011;1866;48.374;10.766;2022-07-29T05:57:27;107.20;;;8.40;;
3700;SDS011;1866;48.374;10.766;2022-07-29T05:59:54;103.37;;;8.97;;
3700;SDS011;1866;48.374;10.766;2022-07-29T06:02:21;104.57;;;9.27;;
3700;SDS011;1866;48.374;10.766;2022-07-29T06:04:48;101.30;;;8.37;;
3700;SDS011;1866;48.374;10.766;2022-07-29T06:07:15;103.70;;;9.30;;
3700;SDS011;1866;48.374;10.766;2022-07-29T06:09:44;102.27;;;7.70;;
3700;SDS011;1866;48.374;10.766;2022-07-29T06:12:11;106.93;;;7.53;;
3700;SDS011;1866;48.374;10.766;2022-07-29T06:14:38;101.83;;;8.37;;
3700;SDS011;1866;48.374;10.766;2022-07-29T06:17:05;101.53;;;7.43;;
3700;SDS011;1866;48.374;10.766;2022-07-29T06:19:33;100.07;;;7.67;;
3700;SDS011;1866;48.374;10.766;2022-07-29T06:22:01;109.00;;;8.90;;
3700;SDS011;1866;48.374;10.766;2022-07-29T06:24:28;101.40;;;8.73;;
3700;SDS011;1866;48.374;10.766;2022-07-29T06:26:57;100.70;;;7.60;;
3700;SDS011;1866;48.374;10.766;2022-07-29T06:29:23;103.13;;;7.60;;
3700;SDS011;1866;48.374;10.766;2022-07-29T06:31:50;104.20;;;7.20;;
3700;SDS011;1866;48.374;10.766;2022-07-29T06:34:18;98.10;;;7.17;;
3700;SDS011;1866;48.374;10.766;2022-07-29T06:36:45;102.40;;;8.13;;
3700;SDS011;1866;48.374;10.766;2022-07-29T06:39:14;102.23;;;7.70;;
3700;SDS011;1866;48.374;10.766;2022-07-29T06:41:41;100.27;;;7.47;;
3700;SDS011;1866;48.374;10.766;2022-07-29T06:44:12;101.20;;;7.30;;
3700;SDS011;1866;48.374;10.766;2022-07-29T06:46:39;100.60;;;7.63;;
3700;SDS011;1866;48.374;10.766;2022-07-29T06:49:06;99.00;;;6.70;;
3700;SDS011;1866;48.374;10.766;2022-07-29T06:51:34;101.00;;;8.47;;
3700;SDS011;1866;48.374;10.766;2022-07-29T06:54:02;99.20;;;8.07;;
3700;SDS011;1866;48.374;10.766;2022-07-29T06:56:30;98.03;;;7.90;;
3700;SDS011;1866;48.374;10.766;2022-07-29T06:58:58;100.20;;;7.63;;
3700;SDS011;1866;48.374;10.766;2022-07-29T07:01:26;97.90;;;7.20;;
3700;SDS011;1866;48.374;10.766;2022-07-29T07:03:53;100.10;;;6.97;;
3700;SDS011;1866;48.374;10.766;2022-07-29T07:06:20;98.70;;;6.93;;
3700;SDS011;1866;48.374;10.766;2022-07-29T07:08:47;103.70;;;8.17;;
3700;SDS011;1866;48.374;10.766;2022-07-29T07:11:14;97.40;;;6.20;;
3700;SDS011;1866;48.374;10.766;2022-07-29T07:13:41;97.30;;;6.30;;
3700;SDS011;1866;48.374;10.766;2022-07-29T07:16:07;103.67;;;6.70;;
3700;SDS011;1866;48.374;10.766;2022-07-29T07:18:36;98.07;;;6.43;;
3700;SDS011;1866;48.374;10.766;2022-07-29T07:21:03;97.73;;;6.50;;
3700;SDS011;1866;48.374;10.766;2022-07-29T07:23:30;100.43;;;6.63;;
3700;SDS011;1866;48.374;10.766;2022-07-29T07:25:57;98.90;;;6.70;;
3700;SDS011;1866;48.374;10.766;2022-07-29T07:28:25;100.30;;;7.30;;
3700;SDS011;1866;48.374;10.766;2022-07-29T07:30:52;97.07;;;6.17;;
3700;SDS011;1866;48.374;10.766;2022-07-29T07:33:19;100.40;;;7.70;;
3700;SDS011;1866;48.374;10.766;2022-07-29T07:35:47;99.50;;;6.00;;
3700;SDS011;1866;48.374;10.766;2022-07-29T07:38:14;95.93;;;5.20;;
3700;SDS011;1866;48.374;10.766;2022-07-29T07:40:41;96.70;;;5.37;;
3700;SDS011;1866;48.374;10.766;2022-07-29T07:43:08;95.27;;;5.50;;
3700;SDS011;1866;48.374;10.766;2022-07-29T07:45:35;94.63;;;4.90;;
3700;SDS011;1866;48.374;10.766;2022-07-29T07:48:02;95.70;;;5.00;;
3700;SDS011;1866;48.374;10.766;2022-07-29T07:50:29;93.90;;;4.77;;
3700;SDS011;1866;48.374;10.766;2022-07-29T07:52:59;96.57;;;5.30;;
3700;SDS011;1866;48.374;10.766;2022-07-29T07:55:27;95.40;;;5.10;;
3700;SDS011;1866;48.374;10.766;2022-07-29T07:57:54;97.03;;;5.30;;
3700;SDS011;1866;48.374;10.766;2022-07-29T08:00:22;95.10;;;5.00;;
3700;SDS011;1866;48.374;10.766;2022-07-29T08:02:49;100.90;;;5.27;;
3700;SDS011;1866;48.374;10.766;2022-07-29T08:05:16;95.20;;;4.80;;
3700;SDS011;1866;48.374;10.766;2022-07-29T08:07:44;94.83;;;4.60;;
3700;SDS011;1866;48.374;10.766;2022-07-29T08:10:13;96.23;;;5.27;;
3700;SDS011;1866;48.374;10.766;2022-07-29T08:13:01;96.23;;;5.13;;
3700;SDS011;1866;48.374;10.766;2022-07-29T08:15:28;101.30;;;5.67;;
3700;SDS011;1866;48.374;10.766;2022-07-29T08:17:55;93.90;;;5.00;;
3700;SDS011;1866;48.374;10.766;2022-07-29T08:20:22;95.70;;;5.60;;
3700;SDS011;1866;48.374;10.766;2022-07-29T08:22:49;96.27;;;5.27;;
3700;SDS011;1866;48.374;10.766;2022-07-29T08:25:17;94.20;;;4.50;;
3700;SDS011;1866;48.374;10.766;2022-07-29T08:27:45;95.07;;;4.57;;
3700;SDS011;1866;48.374;10.766;2022-07-29T08:30:12;95.97;;;5.03;;
3700;SDS011;1866;48.374;10.766;2022-07-29T08:32:39;94.87;;;4.40;;
3700;SDS011;1866;48.374;10.766;2022-07-29T08:35:07;99.97;;;5.00;;
3700;SDS011;1866;48.374;10.766;2022-07-29T08:37:35;94.63;;;4.40;;
3700;SDS011;1866;48.374;10.766;2022-07-29T08:40:02;95.00;;;4.40;;
3700;SDS011;1866;48.374;10.766;2022-07-29T08:42:31;96.17;;;4.97;;
3700;SDS011;1866;48.374;10.766;2022-07-29T08:44:58;94.37;;;4.83;;
3700;SDS011;1866;48.374;10.766;2022-07-29T08:47:25;96.10;;;4.87;;
3700;SDS011;1866;48.374;10.766;2022-07-29T08:49:53;96.07;;;5.27;;
3700;SDS011;1866;48.374;10.766;2022-07-29T08:52:20;94.77;;;4.70;;
3700;SDS011;1866;48.374;10.766;2022-07-29T08:54:49;95.00;;;4.80;;
3700;SDS011;1866;48.374;10.766;2022-07-29T08:57:18;95.27;;;5.20;;
3700;SDS011;1866;48.374;10.766;2022-07-29T08:59:48;110.47;;;5.90;;
3700;SDS011;1866;48.374;10.766;2022-07-29T09:02:18;99.43;;;6.10;;
3700;SDS011;1866;48.374;10.766;2022-07-29T09:04:47;96.30;;;5.83;;
3700;SDS011;1866;48.374;10.766;2022-07-29T09:07:14;96.10;;;5.50;;
3700;SDS011;1866;48.374;10.766;2022-07-29T09:09:43;94.83;;;5.37;;
3700;SDS011;1866;48.374;10.766;2022-07-29T09:12:10;96.13;;;5.00;;
3700;SDS011;1866;48.374;10.766;2022-07-29T09:14:37;95.40;;;4.80;;
3700;SDS011;1866;48.374;10.766;2022-07-29T09:17:08;96.80;;;5.17;;
3700;SDS011;1866;48.374;10.766;2022-07-29T09:19:35;95.67;;;5.17;;
3700;SDS011;1866;48.374;10.766;2022-07-29T09:22:03;100.77;;;5.77;;
3700;SDS011;1866;48.374;10.766;2022-07-29T09:24:41;99.80;;;5.63;;
3700;SDS011;1866;48.374;10.766;2022-07-29T09:27:19;94.47;;;4.90;;
3700;SDS011;1866;48.374;10.766;2022-07-29T09:29:48;93.80;;;4.60;;
3700;SDS011;1866;48.374;10.766;2022-07-29T09:32:24;93.30;;;4.53;;
3700;SDS011;1866;48.374;10.766;2022-07-29T09:34:52;95.60;;;5.53;;
3700;SDS011;1866;48.374;10.766;2022-07-29T09:37:45;94.77;;;4.63;;
3700;SDS011;1866;48.374;10.766;2022-07-29T09:40:14;96.57;;;4.60;;
3700;SDS011;1866;48.374;10.766;2022-07-29T09:42:42;93.90;;;4.63;;
3700;SDS011;1866;48.374;10.766;2022-07-29T09:45:10;93.60;;;4.70;;
3700;SDS011;1866;48.374;10.766;2022-07-29T09:47:43;95.67;;;5.47;;
3700;SDS011;1866;48.374;10.766;2022-07-29T09:50:16;94.10;;;4.60;;
3700;SDS011;1866;48.374;10.766;2022-07-29T09:52:49;92.67;;;4.27;;
3700;SDS011;1866;48.374;10.766;2022-07-29T09:55:17;92.20;;;3.90;;
3700;SDS011;1866;48.374;10.766;2022-07-29T09:57:45;93.97;;;4.67;;
3700;SDS011;1866;48.374;10.766;2022-07-29T10:00:14;94.10;;;4.50;;
3700;SDS011;1866;48.374;10.766;2022-07-29T10:02:44;92.37;;;3.93;;
3700;SDS011;1866;48.374;10.766;2022-07-29T10:05:19;92.97;;;4.87;;
3700;SDS011;1866;48.374;10.766;2022-07-29T10:07:48;97.13;;;3.80;;
3700;SDS011;1866;48.374;10.766;2022-07-29T10:10:19;95.50;;;4.60;;
3700;SDS011;1866;48.374;10.766;2022-07-29T10:12:48;94.60;;;4.03;;
3700;SDS011;1866;48.374;10.766;2022-07-29T10:15:21;93.10;;;4.03;;
3700;SDS011;1866;48.374;10.766;2022-07-29T10:17:51;93.77;;;4.83;;
3700;SDS011;1866;48.374;10.766;2022-07-29T10:20:21;92.67;;;4.13;;
3700;SDS011;1866;48.374;10.766;2022-07-29T10:22:49;107.63;;;5.27;;
3700;SDS011;1866;48.374;10.766;2022-07-29T10:25:17;92.37;;;4.10;;
3700;SDS011;1866;48.374;10.766;2022-07-29T10:27:44;93.47;;;4.50;;
3700;SDS011;1866;48.374;10.766;2022-07-29T10:30:13;93.90;;;4.80;;
3700;SDS011;1866;48.374;10.766;2022-07-29T10:32:51;95.80;;;4.70;;
3700;SDS011;1866;48.374;10.766;2022-07-29T10:35:32;92.87;;;4.47;;
3700;SDS011;1866;48.374;10.766;2022-07-29T10:38:13;93.67;;;4.87;;
3700;SDS011;1866;48.374;10.766;2022-07-29T10:40:59;94.87;;;4.83;;
3700;SDS011;1866;48.374;10.766;2022-07-29T10:43:53;93.10;;;4.53;;
3700;SDS011;1866;48.374;10.766;2022-07-29T10:46:22;92.63;;;4.73;;
3700;SDS011;1866;48.374;10.766;2022-07-29T10:49:08;92.90;;;4.60;;
3700;SDS011;1866;48.374;10.766;2022-07-29T10:51:53;95.50;;;5.53;;
3700;SDS011;1866;48.374;10.766;2022-07-29T11:03:01;92.97;;;4.30;;
3700;SDS011;1866;48.374;10.766;2022-07-29T11:05:29;91.37;;;3.90;;
3700;SDS011;1866;48.374;10.766;2022-07-29T11:08:20;93.70;;;4.03;;
3700;SDS011;1866;48.374;10.766;2022-07-29T11:10:50;94.37;;;4.77;;
3700;SDS011;1866;48.374;10.766;2022-07-29T11:16:16;91.40;;;3.60;;
3700;SDS011;1866;48.374;10.766;2022-07-29T11:21:49;92.77;;;4.40;;
3700;SDS011;1866;48.374;10.766;2022-07-29T11:24:18;92.00;;;4.20;;
3700;SDS011;1866;48.374;10.766;2022-07-29T11:29:34;90.60;;;3.80;;
3700;SDS011;1866;48.374;10.766;2022-07-29T11:32:11;92.03;;;3.77;;
3700;SDS011;1866;48.374;10.766;2022-07-29T11:34:39;90.87;;;3.70;;
3700;SDS011;1866;48.374;10.766;2022-07-29T11:37:15;94.10;;;3.90;;
3700;SDS011;1866;48.374;10.766;2022-07-29T11:39:47;93.40;;;3.93;;
3700;SDS011;1866;48.374;10.766;2022-07-29T11:42:38;90.67;;;3.70;;
3700;SDS011;1866;48.374;10.766;2022-07-29T11:45:16;92.63;;;4.00;;
3700;SDS011;1866;48.374;10.766;2022-07-29T11:47:52;92.33;;;4.23;;
3700;SDS011;1866;48.374;10.766;2022-07-29T11:50:30;90.37;;;3.53;;
3700;SDS011;1866;48.374;10.766;2022-07-29T11:53:00;90.10;;;3.63;;
3700;SDS011;1866;48.374;10.766;2022-07-29T11:55:34;92.67;;;4.70;;
3700;SDS011;1866;48.374;10.766;2022-07-29T11:58:03;97.80;;;3.90;;
3700;SDS011;1866;48.374;10.766;2022-07-29T12:00:31;92.60;;;4.17;;
3700;SDS011;1866;48.374;10.766;2022-07-29T12:02:59;91.90;;;3.47;;
3700;SDS011;1866;48.374;10.766;2022-07-29T12:05:32;90.57;;;3.70;;
3700;SDS011;1866;48.374;10.766;2022-07-29T12:08:10;90.47;;;3.40;;
3700;SDS011;1866;48.374;10.766;2022-07-29T12:10:38;90.87;;;3.80;;
3700;SDS011;1866;48.374;10.766;2022-07-29T12:13:06;90.37;;;3.30;;
3700;SDS011;1866;48.374;10.766;2022-07-29T12:15:33;91.20;;;4.00;;
3700;SDS011;1866;48.374;10.766;2022-07-29T12:18:10;91.63;;;4.00;;
3700;SDS011;1866;48.374;10.766;2022-07-29T12:20:39;91.03;;;3.87;;
3700;SDS011;1866;48.374;10.766;2022-07-29T12:23:06;94.50;;;4.00;;
3700;SDS011;1866;48.374;10.766;2022-07-29T12:25:35;90.37;;;3.47;;
3700;SDS011;1866;48.374;10.766;2022-07-29T12:28:03;92.00;;;3.73;;
3700;SDS011;1866;48.374;10.766;2022-07-29T12:30:41;91.67;;;3.93;;
3700;SDS011;1866;48.374;10.766;2022-07-29T12:35:49;91.30;;;3.50;;
3700;SDS011;1866;48.374;10.766;2022-07-29T12:38:18;92.30;;;3.60;;
3700;SDS011;1866;48.374;10.766;2022-07-29T12:40:48;94.80;;;3.80;;
3700;SDS011;1866;48.374;10.766;2022-07-29T12:43:16;95.00;;;4.07;;
3700;SDS011;1866;48.374;10.766;2022-07-29T12:45:45;90.87;;;3.70;;
3700;SDS011;1866;48.374;10.766;2022-07-29T12:48:12;92.40;;;3.50;;
3700;SDS011;1866;48.374;10.766;2022-07-29T12:50:53;99.13;;;4.43;;
3700;SDS011;1866;48.374;10.766;2022-07-29T12:53:27;91.87;;;3.50;;
3700;SDS011;1866;48.374;10.766;2022-07-29T12:55:56;91.27;;;3.90;;
3700;SDS011;1866;48.374;10.766;2022-07-29T12:58:30;93.17;;;4.07;;
3700;SDS011;1866;48.374;10.766;2022-07-29T13:01:02;93.17;;;3.90;;
3700;SDS011;1866;48.374;10.766;2022-07-29T13:03:44;92.07;;;3.70;;
3700;SDS011;1866;48.374;10.766;2022-07-29T13:06:32;92.07;;;3.80;;
3700;SDS011;1866;48.374;10.766;2022-07-29T13:09:03;102.03;;;4.10;;
3700;SDS011;1866;48.374;10.766;2022-07-29T13:11:35;91.37;;;3.53;;
3700;SDS011;1866;48.374;10.766;2022-07-29T13:14:04;92.27;;;3.70;;
3700;SDS011;1866;48.374;10.766;2022-07-29T13:16:33;93.10;;;3.80;;
3700;SDS011;1866;48.374;10.766;2022-07-29T13:19:04;93.07;;;3.70;;
3700;SDS011;1866;48.374;10.766;2022-07-29T13:21:33;92.03;;;3.53;;
3700;SDS011;1866;48.374;10.766;2022-07-29T13:24:00;92.17;;;3.40;;
3700;SDS011;1866;48.374;10.766;2022-07-29T13:26:27;97.33;;;4.63;;
3700;SDS011;1866;48.374;10.766;2022-07-29T13:28:55;92.60;;;3.70;;
3700;SDS011;1866;48.374;10.766;2022-07-29T13:31:22;92.17;;;3.70;;
3700;SDS011;1866;48.374;10.766;2022-07-29T13:33:49;93.77;;;3.60;;
3700;SDS011;1866;48.374;10.766;2022-07-29T13:36:16;96.30;;;3.70;;
3700;SDS011;1866;48.374;10.766;2022-07-29T13:38:43;97.90;;;3.60;;
3700;SDS011;1866;48.374;10.766;2022-07-29T13:41:10;91.20;;;3.40;;
3700;SDS011;1866;48.374;10.766;2022-07-29T13:43:37;94.27;;;3.97;;
3700;SDS011;1866;48.374;10.766;2022-07-29T13:46:05;92.47;;;4.70;;
3700;SDS011;1866;48.374;10.766;2022-07-29T13:48:32;91.80;;;3.70;;
3700;SDS011;1866;48.374;10.766;2022-07-29T13:50:59;91.87;;;3.83;;
3700;SDS011;1866;48.374;10.766;2022-07-29T13:53:26;91.40;;;4.10;;
3700;SDS011;1866;48.374;10.766;2022-07-29T13:55:53;93.10;;;4.13;;
3700;SDS011;1866;48.374;10.766;2022-07-29T13:58:20;92.87;;;3.90;;
3700;SDS011;1866;48.374;10.766;2022-07-29T14:00:47;92.30;;;3.93;;
3700;SDS011;1866;48.374;10.766;2022-07-29T14:03:16;91.60;;;3.63;;
3700;SDS011;1866;48.374;10.766;2022-07-29T14:05:44;92.80;;;3.80;;
3700;SDS011;1866;48.374;10.766;2022-07-29T14:08:10;91.23;;;3.40;;
3700;SDS011;1866;48.374;10.766;2022-07-29T14:10:38;91.40;;;3.60;;
3700;SDS011;1866;48.374;10.766;2022-07-29T14:13:05;91.43;;;3.60;;
3700;SDS011;1866;48.374;10.766;2022-07-29T14:15:32;90.90;;;3.63;;
3700;SDS011;1866;48.374;10.766;2022-07-29T14:17:59;90.40;;;3.70;;
3700;SDS011;1866;48.374;10.766;2022-07-29T14:20:29;92.30;;;3.67;;
3700;SDS011;1866;48.374;10.766;2022-07-29T14:22:57;90.80;;;3.90;;
3700;SDS011;1866;48.374;10.766;2022-07-29T14:25:26;90.20;;;3.40;;
3700;SDS011;1866;48.374;10.766;2022-07-29T14:27:53;93.97;;;3.67;;
3700;SDS011;1866;48.374;10.766;2022-07-29T14:30:21;90.30;;;3.47;;
3700;SDS011;1866;48.374;10.766;2022-07-29T14:32:47;91.50;;;3.40;;
3700;SDS011;1866;48.374;10.766;2022-07-29T14:35:15;91.07;;;3.50;;
3700;SDS011;1866;48.374;10.766;2022-07-29T14:37:43;93.10;;;4.50;;
3700;SDS011;1866;48.374;10.766;2022-07-29T14:40:11;93.27;;;3.93;;
3700;SDS011;1866;48.374;10.766;2022-07-29T14:42:38;96.93;;;3.93;;
3700;SDS011;1866;48.374;10.766;2022-07-29T14:45:07;91.70;;;4.17;;
3700;SDS011;1866;48.374;10.766;2022-07-29T14:47:35;90.33;;;3.80;;
3700;SDS011;1866;48.374;10.766;2022-07-29T14:50:08;90.77;;;3.50;;
3700;SDS011;1866;48.374;10.766;2022-07-29T14:52:35;90.60;;;3.53;;
3700;SDS011;1866;48.374;10.766;2022-07-29T14:55:04;92.47;;;3.80;;
3700;SDS011;1866;48.374;10.766;2022-07-29T14:57:32;92.50;;;3.53;;
3700;SDS011;1866;48.374;10.766;2022-07-29T15:00:00;92.60;;;3.53;;
3700;SDS011;1866;48.374;10.766;2022-07-29T15:02:27;93.20;;;3.80;;
3700;SDS011;1866;48.374;10.766;2022-07-29T15:04:54;92.57;;;3.80;;
3700;SDS011;1866;48.374;10.766;2022-07-29T15:07:22;91.53;;;3.50;;
3700;SDS011;1866;48.374;10.766;2022-07-29T15:09:48;93.67;;;3.90;;
3700;SDS011;1866;48.374;10.766;2022-07-29T15:12:17;90.70;;;3.60;;
3700;SDS011;1866;48.374;10.766;2022-07-29T15:14:44;92.67;;;4.20;;
3700;SDS011;1866;48.374;10.766;2022-07-29T15:17:11;93.87;;;4.43;;
3700;SDS011;1866;48.374;10.766;2022-07-29T15:19:39;93.47;;;4.17;;